Time;durP1;ratioP1;P1;durP2;ratioP2;P2;SDS_P1;SDS_P2;PMS_P1;PMS_P2;Temp;Humidity;BMP_temperature;BMP_pressure;BME280_temperature;BME280_humidity;BME280_pressure;Samples;Min_cycle;Max_cycle;Signal;HPM_P1;HPM_P2
2021/12/08 00:00:28;;;;;;;9.40;4.22;;;3.30;99.90;;;;;;5052424;28;20115;-86
2021/12/08 00:02:58;;;;;;;9.95;3.45;;;3.50;99.90;;;;;;5044706;28;20033;-87
2021/12/08 00:05:24;;;;;;;9.27;3.78;;;3.30;99.90;;;;;;5035751;28;20120;-86
2021/12/08 00:07:51;;;;;;;8.80;4.00;;;3.30;99.90;;;;;;5035736;28;20465;-86
2021/12/08 00:13:03;;;;;;;7.82;3.80;;;3.30;99.90;;;;;;5063969;28;20063;-86
2021/12/08 00:15:35;;;;;;;8.27;3.80;;;5.60;99.90;;;;;;5048115;28;20166;-83
2021/12/08 00:18:03;;;;;;;9.13;3.45;;;3.30;99.90;;;;;;5051552;28;20119;-82
2021/12/08 00:20:32;;;;;;;9.02;3.78;;;3.30;99.90;;;;;;5052584;28;20094;-80
2021/12/08 00:22:59;;;;;;;9.25;3.67;;;3.30;99.90;;;;;;5046631;28;20033;-80
2021/12/08 00:25:33;;;;;;;7.03;3.17;;;3.30;99.90;;;;;;5109834;27;20113;-78
2021/12/08 00:27:59;;;;;;;13.55;3.95;;;3.30;99.90;;;;;;5071315;28;20086;-79
2021/12/08 00:30:26;;;;;;;11.63;4.40;;;3.90;99.90;;;;;;5072229;28;20068;-82
2021/12/08 00:32:53;;;;;;;7.55;3.78;;;3.30;99.90;;;;;;5052658;28;20075;-81
2021/12/08 00:35:19;;;;;;;9.60;4.63;;;3.40;99.90;;;;;;5034878;28;20044;-82
2021/12/08 00:37:45;;;;;;;10.45;4.30;;;3.40;99.90;;;;;;5051668;28;20040;-80
2021/12/08 00:40:13;;;;;;;13.32;4.80;;;4.70;99.90;;;;;;5051386;28;20052;-80
2021/12/08 00:42:39;;;;;;;7.72;3.95;;;3.40;99.90;;;;;;5044875;28;20383;-82
2021/12/08 00:45:08;;;;;;;8.15;3.65;;;3.40;99.90;;;;;;5051409;28;20040;-80
2021/12/08 00:47:34;;;;;;;8.93;3.85;;;3.50;99.90;;;;;;5042954;28;20138;-80
2021/12/08 00:50:00;;;;;;;7.88;3.90;;;3.60;99.90;;;;;;5035182;28;20044;-81
2021/12/08 00:52:28;;;;;;;7.95;3.83;;;3.40;99.90;;;;;;5034991;28;20033;-82
2021/12/08 00:54:58;;;;;;;8.80;3.47;;;3.60;99.90;;;;;;5051692;28;20076;-81
2021/12/08 00:57:24;;;;;;;11.13;4.13;;;3.60;99.90;;;;;;5052439;28;20048;-83
2021/12/08 00:59:50;;;;;;;11.45;5.15;;;3.50;99.90;;;;;;5034093;28;20152;-83
2021/12/08 01:02:15;;;;;;;9.93;3.85;;;3.40;99.90;;;;;;5057215;28;20132;-83
2021/12/08 01:04:41;;;;;;;9.55;4.75;;;3.40;99.90;;;;;;5065333;28;20037;-82
2021/12/08 01:07:07;;;;;;;9.55;3.90;;;3.60;99.90;;;;;;5049768;28;20040;-83
2021/12/08 01:09:33;;;;;;;9.40;4.68;;;4.00;99.90;;;;;;5050073;28;20124;-82
2021/12/08 01:12:02;;;;;;;10.90;5.15;;;3.90;99.90;;;;;;5051003;28;20504;-81
2021/12/08 01:14:34;;;;;;;12.75;4.80;;;3.80;99.90;;;;;;5033735;28;20516;-81
2021/12/08 01:17:01;;;;;;;11.43;4.75;;;3.50;99.90;;;;;;5066739;28;20045;-82
2021/12/08 01:19:27;;;;;;;10.43;4.80;;;3.80;99.90;;;;;;5033952;28;20040;-82
2021/12/08 01:21:53;;;;;;;9.68;4.80;;;4.00;99.90;;;;;;5037545;28;20039;-83
2021/12/08 01:24:19;;;;;;;10.38;4.60;;;3.90;99.90;;;;;;5059279;28;20154;-83
2021/12/08 01:26:45;;;;;;;10.02;4.97;;;5.00;99.90;;;;;;5050448;28;20131;-83
2021/12/08 01:29:11;;;;;;;12.02;4.93;;;4.90;99.90;;;;;;5032762;28;20052;-82
2021/12/08 01:31:41;;;;;;;8.90;4.93;;;;;;;;;;5048092;28;20036;-83
2021/12/08 01:34:07;;;;;;;8.23;4.60;;;;;;;;;;5043123;28;20055;-81
2021/12/08 01:36:34;;;;;;;11.13;4.97;;;;;;;;;;5035295;28;20051;-81
2021/12/08 01:39:02;;;;;;;11.65;4.97;;;;;;;;;;5036292;28;20044;-82
2021/12/08 01:41:30;;;;;;;11.40;5.15;;;;;;;;;;5006372;28;20061;-82
2021/12/08 01:46:45;;;;;;;9.55;4.80;;;;;;;;;;5033710;28;20041;-80
2021/12/08 01:49:13;;;;;;;10.75;5.03;;;;;;;;;;5035389;28;20044;-80
2021/12/08 01:51:40;;;;;;;8.30;4.70;;;;;;;;;;5036783;28;20055;-80
2021/12/08 01:54:09;;;;;;;11.90;5.50;;;;;;;;;;5036075;28;20052;-80
2021/12/08 01:56:36;;;;;;;10.65;6.03;;;;;;;;;;5019833;28;20124;-81
2021/12/08 01:59:06;;;;;;;8.20;4.57;;;;;;;;;;5016808;28;20037;-80
2021/12/08 02:01:33;;;;;;;12.95;6.65;;;;;;;;;;5027168;28;20052;-79
2021/12/08 02:04:05;;;;;;;9.68;5.45;;;;;;;;;;5035165;28;20045;-79
2021/12/08 02:06:38;;;;;;;11.00;5.72;;;;;;;;;;5036295;28;20091;-81
2021/12/08 02:09:06;;;;;;;10.50;5.50;;;;;;;;;;5035856;28;20063;-82
2021/12/08 02:11:32;;;;;;;13.43;5.90;;;;;;;;;;5035666;28;20041;-82
2021/12/08 02:14:01;;;;;;;10.57;5.28;;;;;;;;;;5019422;28;20048;-82
2021/12/08 02:16:28;;;;;;;10.88;5.28;;;;;;;;;;5004400;28;20041;-82
2021/12/08 02:18:54;;;;;;;8.70;5.25;;;;;;;;;;5024118;28;20099;-81
2021/12/08 02:21:34;;;;;;;9.75;5.63;;;;;;;;;;5018629;28;20041;-81
2021/12/08 02:24:02;;;;;;;10.95;5.30;;;;;;;;;;5033289;28;20084;-80
2021/12/08 02:26:29;;;;;;;9.35;6.07;;;;;;;;;;5029405;28;20116;-80
2021/12/08 02:28:56;;;;;;;9.00;5.45;;;;;;;;;;5035980;28;20516;-80
2021/12/08 02:31:33;;;;;;;11.73;5.78;;;;;;;;;;5018511;28;20068;-80
2021/12/08 02:48:03;;;;;;;9.60;5.40;;;;;;;;;;5034653;28;20505;-80
2021/12/08 02:50:32;;;;;;;10.43;6.20;;;;;;;;;;5035676;28;20507;-80
2021/12/08 02:52:59;;;;;;;11.68;6.93;;;;;;;;;;5018265;28;20041;-81
2021/12/08 02:55:27;;;;;;;12.80;6.70;;;;;;;;;;5012026;28;20045;-81
2021/12/08 02:57:53;;;;;;;11.65;6.47;;;;;;;;;;5015843;28;20079;-81
2021/12/08 03:00:23;;;;;;;9.85;6.68;;;;;;;;;;5014632;28;20045;-81
2021/12/08 03:02:50;;;;;;;9.80;6.00;;;;;;;;;;5015447;28;20052;-80
2021/12/08 03:05:16;;;;;;;8.57;6.57;;;;;;;;;;5019627;28;20079;-82
2021/12/08 03:07:43;;;;;;;10.57;7.30;;;;;;;;;;5034386;28;20095;-82
2021/12/08 03:10:11;;;;;;;13.20;7.05;;;;;;;;;;5034598;28;20146;-82
2021/12/08 03:12:38;;;;;;;10.90;7.28;;;;;;;;;;5024171;28;20076;-83
2021/12/08 03:15:04;;;;;;;14.13;7.57;;;;;;;;;;4999176;28;20552;-82
2021/12/08 03:17:33;;;;;;;12.93;8.07;;;;;;;;;;5015372;28;20049;-82
2021/12/08 03:19:59;;;;;;;10.27;7.15;;;;;;;;;;5029985;28;20052;-82
2021/12/08 03:22:25;;;;;;;11.23;7.40;;;;;;;;;;5031777;28;20574;-82
2021/12/08 03:24:52;;;;;;;11.77;6.65;;;;;;;;;;5019881;28;20100;-81
2021/12/08 03:27:25;;;;;;;11.50;7.68;;;;;;;;;;5014501;28;20091;-81
2021/12/08 03:29:56;;;;;;;10.65;7.50;;;4.60;99.90;;;;;;5015253;28;20421;-81
2021/12/08 03:32:33;;;;;;;13.52;8.10;;;4.60;99.90;;;;;;4999036;28;20033;-81
2021/12/08 03:34:59;;;;;;;11.20;7.95;;;5.10;99.90;;;;;;5008153;28;20046;-80
2021/12/08 03:37:32;;;;;;;11.52;8.10;;;4.60;99.90;;;;;;4979663;28;20049;-80
2021/12/08 03:40:00;;;;;;;10.38;7.97;;;5.30;99.90;;;;;;4995186;28;20053;-80
2021/12/08 03:42:29;;;;;;;10.70;8.25;;;6.30;99.90;;;;;;4994595;28;20258;-80
2021/12/08 03:44:59;;;;;;;13.52;9.45;;;4.70;99.90;;;;;;4984909;28;20029;-79
2021/12/08 03:51:05;;;;;;;13.30;9.07;;;4.80;99.90;;;;;;5032248;28;20487;-79
2021/12/08 03:53:31;;;;;;;17.95;8.95;;;4.80;99.90;;;;;;4998132;28;20069;-79
2021/12/08 03:55:56;;;;;;;12.80;8.32;;;4.80;99.90;;;;;;5012490;28;20030;-79
2021/12/08 03:58:24;;;;;;;15.25;9.07;;;4.80;99.90;;;;;;5014383;28;20042;-81
2021/12/08 04:00:52;;;;;;;12.25;8.73;;;4.80;99.90;;;;;;5014580;28;20513;-80
2021/12/08 04:03:19;;;;;;;15.18;9.30;;;4.90;99.90;;;;;;5013626;28;20045;-80
2021/12/08 04:06:01;;;;;;;11.30;8.82;;;4.90;99.90;;;;;;4996723;28;20050;-80
2021/12/08 04:08:42;;;;;;;12.38;8.82;;;4.90;99.90;;;;;;4989996;28;20092;-80
2021/12/08 04:11:10;;;;;;;13.48;9.60;;;5.00;99.90;;;;;;4993933;28;20073;-80
2021/12/08 04:14:07;;;;;;;16.98;9.25;;;6.80;99.90;;;;;;4986296;28;20044;-81
2021/12/08 04:16:39;;;;;;;12.82;9.18;;;5.00;99.90;;;;;;4996213;28;20081;-80
2021/12/08 04:19:06;;;;;;;11.27;8.77;;;5.00;99.90;;;;;;4994463;28;20034;-79
2021/12/08 04:21:33;;;;;;;12.63;8.88;;;5.00;99.90;;;;;;4995209;28;20046;-79
2021/12/08 04:23:59;;;;;;;16.88;9.30;;;5.10;99.90;;;;;;4984583;28;20377;-79
2021/12/08 04:26:34;;;;;;;14.35;9.82;;;5.00;99.90;;;;;;5049592;28;20049;-80
2021/12/08 04:29:00;;;;;;;14.10;9.52;;;7.40;99.90;;;;;;5013777;28;20072;-80
2021/12/08 04:31:30;;;;;;;13.85;9.63;;;4.90;99.90;;;;;;5030138;28;20487;-80
2021/12/08 04:34:01;;;;;;;16.42;10.73;;;5.00;99.90;;;;;;5033289;28;20045;-80
2021/12/08 04:36:37;;;;;;;13.02;9.45;;;4.90;99.90;;;;;;5017372;28;20049;-80
2021/12/08 04:39:08;;;;;;;16.50;9.93;;;5.20;99.90;;;;;;5016672;28;20041;-80
2021/12/08 04:41:40;;;;;;;15.43;9.68;;;5.90;99.90;;;;;;5034122;28;20140;-81
2021/12/08 04:52:06;;;;;;;12.82;9.48;;;4.90;99.90;;;;;;5013676;28;20402;-81
2021/12/08 05:08:43;;;;;;;12.25;10.10;;;5.10;99.90;;;;;;5026443;28;20045;-81
2021/12/08 05:11:17;;;;;;;15.48;9.93;;;5.40;99.90;;;;;;5031720;28;20076;-81
2021/12/08 05:13:44;;;;;;;15.13;9.68;;;5.40;99.90;;;;;;5017429;28;20493;-80
2021/12/08 05:16:11;;;;;;;17.00;9.85;;;6.00;99.90;;;;;;5023116;28;20033;-80
2021/12/08 05:18:42;;;;;;;13.40;8.90;;;5.40;99.90;;;;;;5009079;28;20061;-80
2021/12/08 05:21:40;;;;;;;13.50;8.95;;;6.30;99.90;;;;;;5016459;28;20041;-79
2021/12/08 05:24:15;;;;;;;11.90;9.07;;;5.40;99.90;;;;;;5026964;28;20140;-80
2021/12/08 05:26:49;;;;;;;13.23;8.20;;;5.50;99.90;;;;;;5000629;28;20148;-80
2021/12/08 05:29:28;;;;;;;13.90;8.32;;;5.60;99.90;;;;;;5017359;28;20044;-80
2021/12/08 05:31:58;;;;;;;13.48;8.32;;;5.50;99.90;;;;;;5017182;28;20046;-80
2021/12/08 05:34:26;;;;;;;15.73;8.38;;;5.40;99.90;;;;;;5018771;28;20464;-80
2021/12/08 05:36:52;;;;;;;14.88;8.07;;;5.30;99.90;;;;;;5035249;28;20044;-80
2021/12/08 05:39:22;;;;;;;14.18;8.73;;;5.10;99.90;;;;;;5020251;28;20052;-81
2021/12/08 05:41:52;;;;;;;15.82;9.88;;;5.50;99.90;;;;;;5032430;28;20053;-80
2021/12/08 05:44:18;;;;;;;14.30;9.00;;;5.40;99.90;;;;;;5000469;28;20100;-80
2021/12/08 05:46:48;;;;;;;15.32;9.63;;;5.40;99.90;;;;;;5017308;28;20095;-80
2021/12/08 05:49:16;;;;;;;15.35;9.00;;;5.30;99.90;;;;;;5016077;28;20041;-80
2021/12/08 05:51:43;;;;;;;13.30;8.65;;;5.30;99.90;;;;;;5000654;28;20038;-81
2021/12/08 05:54:14;;;;;;;15.25;8.23;;;5.00;99.90;;;;;;5011618;28;20045;-81
2021/12/08 05:56:41;;;;;;;15.35;7.88;;;5.60;99.90;;;;;;5032570;28;20048;-81
2021/12/08 05:59:08;;;;;;;12.32;7.88;;;7.50;99.90;;;;;;5016735;28;20141;-81
2021/12/08 06:01:44;;;;;;;13.05;7.85;;;4.90;99.90;;;;;;5016869;28;20045;-81
2021/12/08 06:04:11;;;;;;;13.27;7.28;;;5.10;99.90;;;;;;5049125;28;20064;-81
2021/12/08 06:06:38;;;;;;;15.35;8.80;;;5.00;99.90;;;;;;5032557;28;20128;-81
2021/12/08 06:09:09;;;;;;;13.00;8.45;;;4.80;99.90;;;;;;5002193;28;20569;-81
2021/12/08 06:11:35;;;;;;;13.75;8.60;;;5.10;99.90;;;;;;5025541;28;20052;-81
2021/12/08 06:14:01;;;;;;;14.07;8.43;;;6.30;99.90;;;;;;5000599;28;20042;-81
2021/12/08 06:16:30;;;;;;;11.80;8.73;;;5.20;99.90;;;;;;5033410;28;20045;-81
2021/12/08 06:18:57;;;;;;;13.27;8.32;;;5.30;99.90;;;;;;5036179;28;20060;-81
2021/12/08 06:21:27;;;;;;;13.23;8.13;;;5.00;99.90;;;;;;5035946;28;20048;-81
2021/12/08 06:23:54;;;;;;;14.23;7.72;;;5.20;99.90;;;;;;5033197;28;20088;-81
2021/12/08 06:26:22;;;;;;;14.77;7.53;;;4.50;99.90;;;;;;5036391;28;20127;-81
2021/12/08 06:28:49;;;;;;;11.18;7.00;;;5.20;99.90;;;;;;5019657;28;20460;-81
2021/12/08 06:31:16;;;;;;;14.25;8.50;;;5.20;99.90;;;;;;5018622;28;20128;-81
2021/12/08 06:33:42;;;;;;;17.15;8.10;;;5.20;99.90;;;;;;5053988;28;20456;-81
2021/12/08 06:36:34;;;;;;;10.60;6.75;;;5.30;99.90;;;;;;5035485;28;20120;-81
2021/12/08 06:39:00;;;;;;;12.70;7.28;;;6.10;99.90;;;;;;5034344;28;20055;-81
2021/12/08 06:41:34;;;;;;;13.82;7.82;;;6.70;99.90;;;;;;5035814;28;20037;-81
2021/12/08 06:44:06;;;;;;;15.50;7.85;;;5.90;99.90;;;;;;5015820;28;20041;-81
2021/12/08 06:46:32;;;;;;;13.68;7.18;;;5.20;99.90;;;;;;5035876;28;20045;-80
2021/12/08 06:49:00;;;;;;;16.90;7.28;;;5.20;99.90;;;;;;5018877;28;20044;-80
2021/12/08 06:51:35;;;;;;;12.02;7.03;;;5.10;99.90;;;;;;5018825;28;20045;-80
2021/12/08 06:54:12;;;;;;;14.68;7.80;;;5.00;99.90;;;;;;5031811;28;20041;-80
2021/12/08 06:56:46;;;;;;;11.85;6.97;;;5.00;99.90;;;;;;4999957;28;20047;-82
2021/12/08 06:59:16;;;;;;;13.68;6.40;;;5.10;99.90;;;;;;5014868;28;20559;-83
2021/12/08 07:01:59;;;;;;;11.63;6.53;;;5.00;99.90;;;;;;5021396;28;20042;-84
2021/12/08 07:04:34;;;;;;;14.40;6.88;;;5.10;99.90;;;;;;5032316;28;20489;-82
2021/12/08 07:07:14;;;;;;;15.70;6.65;;;5.10;99.90;;;;;;5021893;28;20037;-82
2021/12/08 07:10:10;;;;;;;14.45;6.55;;;4.70;99.90;;;;;;5010928;28;20064;-80
2021/12/08 07:12:42;;;;;;;;;;;5.10;99.90;;;;;;5020565;28;20405;-78
2021/12/08 07:15:16;;;;;;;9.15;5.70;;;5.10;99.90;;;;;;5022540;28;20360;-88
2021/12/08 07:17:45;;;;;;;14.27;6.53;;;5.10;99.90;;;;;;5023271;28;20045;-78
2021/12/08 07:20:28;;;;;;;10.68;6.00;;;6.70;99.90;;;;;;5019885;28;20041;-76
2021/12/08 07:22:57;;;;;;;11.18;5.95;;;5.20;99.90;;;;;;5005595;28;20080;-75
2021/12/08 07:25:25;;;;;;;12.95;5.65;;;5.20;99.90;;;;;;5004621;28;20081;-80
2021/12/08 07:27:52;;;;;;;8.73;5.38;;;5.20;99.90;;;;;;4987945;28;20042;-78
2021/12/08 07:30:26;;;;;;;10.25;5.00;;;5.30;99.90;;;;;;4997554;28;20140;-72
2021/12/08 07:32:52;;;;;;;9.25;5.13;;;5.30;99.90;;;;;;5013744;28;20441;-82
2021/12/08 07:35:28;;;;;;;9.98;5.00;;;6.20;99.90;;;;;;5014779;28;20045;-75
2021/12/08 07:37:54;;;;;;;11.77;5.15;;;5.30;99.90;;;;;;5005878;28;20132;-77
2021/12/08 07:40:25;;;;;;;9.65;4.88;;;5.30;99.90;;;;;;5000164;28;20141;-76
2021/12/08 07:43:04;;;;;;;12.48;5.03;;;5.30;99.90;;;;;;5010630;28;20052;-75
2021/12/08 07:45:35;;;;;;;10.73;5.50;;;5.30;99.90;;;;;;5012423;28;20045;-75
2021/12/08 07:48:12;;;;;;;11.15;5.32;;;6.30;99.90;;;;;;4989490;28;20041;-78
2021/12/08 07:50:44;;;;;;;16.05;5.45;;;5.30;99.90;;;;;;4997253;28;20422;-78
2021/12/08 07:53:11;;;;;;;13.40;5.65;;;5.30;99.90;;;;;;5014327;28;20375;-79
2021/12/08 07:55:41;;;;;;;14.15;5.97;;;5.30;99.90;;;;;;5014490;28;20387;-80
2021/12/08 07:58:09;;;;;;;10.27;5.28;;;6.10;99.90;;;;;;5012754;28;20049;-81
2021/12/08 08:00:46;;;;;;;11.77;6.00;;;5.30;99.90;;;;;;5015096;28;20049;-80
2021/12/08 08:03:24;;;;;;;16.75;5.88;;;5.30;99.90;;;;;;5012938;28;20049;-77
2021/12/08 08:05:52;;;;;;;11.48;4.82;;;5.30;99.90;;;;;;5009341;28;20048;-80
2021/12/08 08:08:18;;;;;;;11.75;5.80;;;5.20;99.90;;;;;;5017622;28;20178;-78
2021/12/08 08:10:52;;;;;;;10.50;4.30;;;5.30;99.90;;;;;;5013094;28;20041;-82
2021/12/08 08:13:24;;;;;;;10.40;4.72;;;5.30;99.90;;;;;;4993721;28;20046;-80
2021/12/08 08:15:57;;;;;;;9.02;3.83;;;5.90;99.90;;;;;;4998350;28;20077;-72
2021/12/08 08:18:27;;;;;;;11.48;4.20;;;5.30;99.90;;;;;;5012189;28;20064;-78
2021/12/08 08:20:57;;;;;;;8.10;4.35;;;5.30;99.90;;;;;;4997630;28;20500;-78
2021/12/08 08:23:27;;;;;;;7.10;3.58;;;5.30;99.90;;;;;;5015697;28;20052;-77
2021/12/08 08:25:56;;;;;;;8.77;3.78;;;5.30;99.90;;;;;;5030198;28;20060;-77
2021/12/08 08:28:22;;;;;;;8.75;4.10;;;5.30;99.90;;;;;;5014460;28;20045;-78
2021/12/08 08:30:55;;;;;;;9.48;3.58;;;5.20;99.90;;;;;;5033706;28;20496;-80
2021/12/08 08:33:21;;;;;;;9.60;3.65;;;5.20;99.90;;;;;;5033717;28;20041;-82
2021/12/08 08:35:53;;;;;;;8.00;3.72;;;5.20;99.90;;;;;;5009709;28;20446;-75
2021/12/08 08:38:23;;;;;;;8.13;3.42;;;5.20;99.90;;;;;;5017382;28;20044;-79
2021/12/08 08:40:59;;;;;;;8.00;3.35;;;5.10;99.90;;;;;;5042084;28;20060;-80
2021/12/08 08:43:25;;;;;;;8.50;3.53;;;5.10;99.90;;;;;;5034011;28;20052;-78
2021/12/08 08:45:58;;;;;;;7.10;2.80;;;5.10;99.90;;;;;;5032431;28;20478;-70
2021/12/08 08:48:29;;;;;;;9.35;3.33;;;5.10;99.90;;;;;;5033558;28;20072;-74
2021/12/08 08:51:04;;;;;;;11.88;4.00;;;5.10;99.90;;;;;;5026312;28;20037;-78
2021/12/08 08:53:31;;;;;;;;;;;5.00;99.90;;;;;;5018579;28;20461;-79
2021/12/08 08:56:18;;;;;;;11.20;3.70;;;5.10;99.90;;;;;;5002021;28;19921;-80
2021/12/08 08:58:48;;;;;;;7.63;2.67;;;5.00;99.90;;;;;;5036121;28;20040;-80
2021/12/08 09:01:20;;;;;;;9.73;3.65;;;5.10;99.90;;;;;;5037835;28;20084;-80
2021/12/08 09:03:51;;;;;;;6.85;3.03;;;5.10;99.90;;;;;;5020210;28;20060;-80
2021/12/08 09:06:27;;;;;;;9.43;2.55;;;5.00;99.90;;;;;;5017895;28;20546;-77
2021/12/08 09:08:54;;;;;;;10.07;3.03;;;;;;;;;;5017991;28;20084;-76
2021/12/08 09:11:24;;;;;;;9.20;2.75;;;;;;;;;;5017289;28;20051;-76
2021/12/08 09:13:52;;;;;;;7.95;2.70;;;;;;;;;;5037256;28;20095;-78
2021/12/08 09:16:22;;;;;;;8.13;2.78;;;;;;;;;;5024119;28;20103;-79
2021/12/08 09:18:57;;;;;;;9.80;2.70;;;;;;;;;;5024236;28;20515;-77
2021/12/08 09:21:39;;;;;;;14.88;2.97;;;;;;;;;;5009107;28;20094;-77
2021/12/08 09:24:16;;;;;;;11.10;3.30;;;;;;;;;;5038458;28;20648;-79
2021/12/08 09:26:46;;;;;;;9.55;3.60;;;;;;;;;;5034948;28;20076;-75
2021/12/08 09:29:21;;;;;;;5.35;2.70;;;;;;;;;;5019558;28;20547;-77
2021/12/08 09:31:53;;;;;;;8.55;2.33;;;;;;;;;;5036804;28;20482;-77
2021/12/08 09:34:22;;;;;;;9.57;2.88;;;;;;;;;;5036568;28;20055;-77
2021/12/08 09:36:54;;;;;;;7.05;2.20;;;;;;;;;;5018701;28;20049;-76
2021/12/08 09:39:42;;;;;;;7.82;3.47;;;;;;;;;;5027555;28;20530;-76
2021/12/08 09:42:11;;;;;;;7.13;2.55;;;;;;;;;;5036497;28;20052;-76
2021/12/08 09:44:43;;;;;;;13.63;2.75;;;;;;;;;;5036753;28;20049;-77
2021/12/08 09:47:09;;;;;;;10.50;3.17;;;;;;;;;;5035525;28;20033;-77
2021/12/08 09:49:35;;;;;;;6.82;3.25;;;;;;;;;;5032572;28;20041;-77
2021/12/08 09:52:05;;;;;;;7.30;3.13;;;;;;;;;;5030424;28;20029;-76
2021/12/08 09:54:31;;;;;;;10.43;3.30;;;;;;;;;;5033537;28;20048;-76
2021/12/08 09:56:59;;;;;;;9.10;3.17;;;;;;;;;;5016394;28;20124;-83
2021/12/08 09:59:25;;;;;;;8.95;3.60;;;;;;;;;;5008168;28;20049;-89
2021/12/08 10:01:53;;;;;;;8.93;3.15;;;5.50;99.90;;;;;;5019895;28;20386;-79
2021/12/08 10:04:19;;;;;;;8.60;3.10;;;5.50;99.90;;;;;;5032441;28;20045;-70
2021/12/08 10:06:49;;;;;;;8.23;3.45;;;5.50;99.90;;;;;;5020992;28;20390;-74
2021/12/08 10:09:19;;;;;;;13.52;3.40;;;5.50;99.90;;;;;;5016188;28;20037;-74
2021/12/08 10:11:46;;;;;;;9.98;3.55;;;5.50;99.90;;;;;;5017132;28;20553;-67
2021/12/08 10:14:12;;;;;;;10.30;3.03;;;5.60;99.90;;;;;;5000040;28;20049;-74
2021/12/08 10:16:39;;;;;;;11.43;3.50;;;;;;;;;;5024299;28;20048;-74
2021/12/08 10:19:05;;;;;;;14.10;4.18;;;;;;;;;;5024897;28;20045;-73
2021/12/08 10:21:33;;;;;;;11.13;4.57;;;;;;;;;;5033311;28;20040;-75
2021/12/08 10:23:59;;;;;;;13.95;3.88;;;;;;;;;;5035036;28;20061;-73
2021/12/08 10:26:25;;;;;;;8.63;3.10;;;;;;;;;;5018266;28;20520;-73
2021/12/08 10:28:54;;;;;;;8.13;3.17;;;;;;;;;;5015589;28;20051;-74
2021/12/08 10:31:28;;;;;;;7.25;3.03;;;;;;;;;;5036710;28;20069;-74
2021/12/08 10:36:49;;;;;;;8.57;2.92;;;;;;;;;;5040846;28;20064;-74
2021/12/08 10:39:23;;;;;;;11.45;3.85;;;5.90;99.90;;;;;;5015648;28;20048;-74
2021/12/08 10:42:06;;;;;;;9.43;3.00;;;5.90;99.90;;;;;;5022088;28;20508;-74
2021/12/08 10:47:26;;;;;;;8.82;2.72;;;5.90;99.90;;;;;;5015975;28;20073;-74
2021/12/08 10:55:30;;;;;;;10.57;2.60;;;6.00;99.90;;;;;;5018366;28;20044;-74
2021/12/08 10:57:56;;;;;;;8.55;3.03;;;5.90;99.90;;;;;;5024883;28;20541;-74
2021/12/08 11:00:33;;;;;;;8.40;2.95;;;6.00;99.90;;;;;;5048384;28;20448;-75
2021/12/08 11:03:03;;;;;;;8.07;3.00;;;6.00;99.90;;;;;;5017737;28;20033;-78
2021/12/08 11:05:37;;;;;;;13.48;3.40;;;6.00;99.90;;;;;;5004513;28;20120;-77
2021/12/08 11:08:13;;;;;;;7.40;2.55;;;6.00;99.90;;;;;;5018615;28;20049;-77
2021/12/08 11:10:44;;;;;;;9.27;3.22;;;6.00;99.90;;;;;;5015691;28;20129;-79
2021/12/08 11:13:12;;;;;;;11.68;3.35;;;6.10;99.90;;;;;;5009442;28;20041;-74
2021/12/08 11:15:39;;;;;;;10.68;3.13;;;6.10;99.90;;;;;;5009838;28;20047;-73
2021/12/08 11:18:22;;;;;;;9.93;2.83;;;6.10;99.90;;;;;;5014400;28;20103;-74
2021/12/08 11:20:51;;;;;;;8.60;2.70;;;6.10;99.90;;;;;;5025890;28;20123;-80
2021/12/08 11:23:38;;;;;;;8.07;2.60;;;6.10;99.90;;;;;;5033783;28;20045;-74
2021/12/08 11:26:10;;;;;;;10.27;2.83;;;6.10;99.90;;;;;;5027809;28;20433;-76
2021/12/08 11:28:36;;;;;;;8.93;2.60;;;6.10;99.90;;;;;;5033990;28;20052;-74
2021/12/08 11:31:15;;;;;;;8.60;2.80;;;6.10;99.90;;;;;;5031696;28;20071;-78
2021/12/08 11:33:47;;;;;;;8.57;2.55;;;6.00;99.90;;;;;;5032069;28;20132;-76
2021/12/08 11:36:17;;;;;;;6.93;2.70;;;6.90;99.90;;;;;;5014402;28;20048;-75
2021/12/08 11:38:45;;;;;;;12.77;3.20;;;6.00;99.90;;;;;;5015072;28;20479;-74
2021/12/08 11:41:24;;;;;;;7.75;3.35;;;6.10;99.90;;;;;;5017359;28;20112;-78
2021/12/08 11:43:53;;;;;;;7.20;3.65;;;6.10;99.90;;;;;;5033472;28;20051;-76
2021/12/08 11:46:20;;;;;;;7.90;2.85;;;6.00;99.90;;;;;;5037760;28;20036;-78
2021/12/08 11:49:04;;;;;;;9.65;4.00;;;6.00;99.90;;;;;;5048719;28;20048;-79
2021/12/08 11:51:56;;;;;;;10.57;3.40;;;6.00;99.90;;;;;;5027360;28;20041;-79
2021/12/08 11:54:49;;;;;;;9.95;2.95;;;6.00;99.90;;;;;;5013984;28;20084;-79
2021/12/08 11:57:27;;;;;;;6.75;2.88;;;6.00;99.90;;;;;;5031033;28;20047;-79
2021/12/08 11:59:59;;;;;;;13.07;3.67;;;6.00;99.90;;;;;;5033955;28;20126;-79
2021/12/08 12:02:29;;;;;;;10.13;2.90;;;6.00;99.90;;;;;;5033312;28;20918;-79
2021/12/08 12:04:56;;;;;;;10.18;3.35;;;6.00;99.90;;;;;;5033847;28;20095;-79
2021/12/08 12:07:22;;;;;;;10.98;3.50;;;6.00;99.90;;;;;;5033710;28;20037;-78
2021/12/08 12:09:48;;;;;;;9.73;3.47;;;6.00;99.90;;;;;;5015895;28;20069;-78
2021/12/08 12:12:15;;;;;;;6.47;2.70;;;7.60;99.90;;;;;;5033923;28;20045;-79
2021/12/08 12:14:41;;;;;;;8.50;3.53;;;5.90;99.90;;;;;;5017041;28;20127;-78
2021/12/08 12:17:08;;;;;;;8.65;2.90;;;6.70;99.90;;;;;;5032402;28;20124;-78
2021/12/08 12:19:49;;;;;;;6.20;2.50;;;5.90;99.90;;;;;;5022311;28;20382;-79
2021/12/08 12:22:32;;;;;;;8.98;3.63;;;5.90;99.90;;;;;;5052347;28;20076;-79
2021/12/08 12:24:58;;;;;;;9.45;2.85;;;5.90;99.90;;;;;;5044825;28;20055;-76
2021/12/08 12:27:44;;;;;;;8.25;3.45;;;5.90;99.90;;;;;;5037968;28;20119;-77
2021/12/08 12:30:21;;;;;;;8.25;3.30;;;5.90;99.90;;;;;;5051200;28;20055;-80
2021/12/08 12:32:52;;;;;;;8.43;3.60;;;5.90;99.90;;;;;;5017982;28;20047;-78
2021/12/08 12:35:22;;;;;;;10.38;3.67;;;5.90;99.90;;;;;;5032376;28;20512;-75
2021/12/08 12:37:58;;;;;;;9.80;3.45;;;5.90;99.90;;;;;;5017212;28;20046;-75
2021/12/08 12:40:39;;;;;;;6.75;3.33;;;5.90;99.90;;;;;;5017856;28;20552;-76
2021/12/08 12:43:06;;;;;;;8.95;3.05;;;6.00;99.90;;;;;;5004984;28;20424;-77
2021/12/08 12:45:43;;;;;;;13.38;4.10;;;6.00;99.90;;;;;;5020315;28;20056;-76
2021/12/08 12:48:23;;;;;;;9.23;3.25;;;6.00;99.90;;;;;;5031193;28;20059;-77
2021/12/08 12:51:06;;;;;;;7.53;3.00;;;6.00;99.90;;;;;;5030786;28;20075;-77
2021/12/08 12:53:39;;;;;;;7.15;2.80;;;6.00;99.90;;;;;;5021700;28;20390;-74
2021/12/08 12:56:43;;;;;;;7.97;3.30;;;6.00;99.90;;;;;;5031441;28;20079;-75
2021/12/08 12:59:21;;;;;;;7.93;3.05;;;6.00;99.90;;;;;;5035020;28;20053;-74
2021/12/08 13:02:06;;;;;;;9.45;3.30;;;6.00;99.90;;;;;;5019594;28;20077;-74
2021/12/08 13:04:35;;;;;;;;;;;6.00;99.90;;;;;;4999571;28;20037;-74
2021/12/08 13:07:07;;;;;;;10.27;2.83;;;6.00;99.90;;;;;;5013775;28;19924;-75
2021/12/08 13:10:05;;;;;;;7.20;3.20;;;5.90;99.90;;;;;;4998364;28;20094;-76
2021/12/08 13:12:37;;;;;;;7.20;2.75;;;5.90;99.90;;;;;;5010542;28;20052;-78
2021/12/08 13:15:13;;;;;;;7.70;3.05;;;7.80;99.90;;;;;;5014150;28;20397;-75
2021/12/08 13:18:15;;;;;;;9.00;3.17;;;6.10;99.90;;;;;;5031452;28;20045;-78
2021/12/08 13:20:42;;;;;;;8.07;3.13;;;6.20;99.90;;;;;;5017175;28;20556;-78
2021/12/08 13:23:17;;;;;;;6.82;2.85;;;6.20;99.90;;;;;;5031113;28;20064;-81
2021/12/08 13:28:14;;;;;;;10.88;3.35;;;;;;;;;;5026225;28;20116;-75
2021/12/08 13:31:04;;;;;;;13.95;3.45;;;;;;;;;;5004914;28;20103;-75
2021/12/08 13:33:30;;;;;;;8.13;2.50;;;;;;;;;;5024054;28;20102;-75
2021/12/08 13:35:57;;;;;;;11.98;3.00;;;;;;;;;;5034513;28;20056;-75
2021/12/08 13:38:24;;;;;;;6.80;2.85;;;;;;;;;;5018116;28;20045;-75
2021/12/08 13:40:53;;;;;;;7.43;3.13;;;;;;;;;;5017569;28;20114;-75
2021/12/08 13:43:38;;;;;;;9.52;2.58;;;;;;;;;;5034289;28;20513;-75
2021/12/08 13:46:05;;;;;;;6.20;2.28;;;;;;;;;;5027715;28;20049;-77
2021/12/08 13:48:32;;;;;;;8.57;2.70;;;;;;;;;;5034905;28;20131;-77
2021/12/08 13:51:21;;;;;;;8.25;3.28;;;;;;;;;;5035731;28;20045;-77
2021/12/08 13:54:06;;;;;;;8.88;2.70;;;;;;;;;;4997573;28;20717;-77
2021/12/08 13:56:41;;;;;;;10.25;3.65;;;;;;;;;;5018724;28;20045;-76
2021/12/08 13:59:07;;;;;;;8.90;3.28;;;;;;;;;;4998491;28;20091;-76
2021/12/08 14:01:38;;;;;;;11.38;2.80;;;;;;;;;;5014605;28;20056;-76
2021/12/08 14:04:15;;;;;;;7.55;2.72;;;;;;;;;;5013691;28;20045;-76
2021/12/08 14:06:41;;;;;;;7.05;2.50;;;;;;;;;;5012778;28;20045;-76
2021/12/08 14:09:14;;;;;;;5.43;2.03;;;;;;;;;;5032711;28;20101;-77
2021/12/08 14:11:40;;;;;;;6.18;2.38;;;;;;;;;;5017451;28;20040;-77
2021/12/08 14:14:08;;;;;;;9.93;2.38;;;;;;;;;;5011152;28;20041;-77
2021/12/08 14:16:34;;;;;;;8.60;2.50;;;;;;;;;;5034751;28;20040;-77
2021/12/08 14:19:01;;;;;;;7.65;2.17;;;;;;;;;;5031904;28;20036;-77
2021/12/08 14:21:33;;;;;;;9.25;2.55;;;;;;;;;;5031712;28;20512;-77
2021/12/08 14:24:06;;;;;;;7.05;2.83;;;;;;;;;;5025492;28;20371;-77
2021/12/08 14:26:36;;;;;;;12.13;3.22;;;;;;;;;;5011492;28;20057;-76
2021/12/08 14:29:07;;;;;;;10.43;3.17;;;;;;;;;;4996271;28;20045;-77
2021/12/08 14:31:48;;;;;;;8.63;3.47;;;;;;;;;;4999344;28;20045;-77
2021/12/08 14:34:17;;;;;;;10.50;3.85;;;;;;;;;;5029898;28;20525;-76
2021/12/08 14:36:43;;;;;;;7.88;3.60;;;;;;;;;;5012239;28;20064;-77
2021/12/08 14:39:18;;;;;;;13.73;4.55;;;;;;;;;;5012878;28;20562;-77
2021/12/08 14:41:44;;;;;;;;;;;6.30;99.90;;;;;;5012444;28;20132;-77